Time;durP1;ratioP1;P1;durP2;ratioP2;P2;SDS_P1;SDS_P2;PMS_P1;PMS_P2;Temp;Humidity;BMP_temperature;BMP_pressure;BME280_temperature;BME280_humidity;BME280_pressure;Samples;Min_cycle;Max_cycle;Signal;HPM_P1;HPM_P2
2023/05/29 00:02:59;;;;;;;20.25;12.80;;;;;;;21.26;65.17;99962.83;1706537;84;21304;-81
2023/05/29 00:06:06;;;;;;;19.05;12.18;;;;;;;21.45;64.38;99962.86;1710231;82;21659;-81
2023/05/29 00:09:11;;;;;;;13.30;11.33;;;;;;;21.79;63.49;99962.24;1735829;82;21857;-81
2023/05/29 00:12:18;;;;;;;17.52;13.58;;;;;;;21.66;63.77;99962.06;1734823;82;21291;-81
2023/05/29 00:15:24;;;;;;;15.60;12.95;;;;;;;21.27;65.16;99961.20;1735178;82;21291;-82
2023/05/29 00:18:29;;;;;;;20.50;13.40;;;;;;;21.07;66.10;99956.70;1735887;82;21288;-82
2023/05/29 00:21:35;;;;;;;18.57;13.58;;;;;;;21.29;65.74;99960.94;1735351;82;21311;-82
2023/05/29 00:24:42;;;;;;;21.23;14.28;;;;;;;21.41;65.69;99954.77;1736050;82;21299;-81
2023/05/29 00:27:47;;;;;;;16.77;13.38;;;;;;;21.42;65.88;99957.83;1735626;82;21869;-82
2023/05/29 00:30:52;;;;;;;17.90;13.68;;;;;;;21.38;66.59;99958.05;1734618;82;21935;-82
2023/05/29 00:33:59;;;;;;;18.55;14.80;;;;;;;21.37;67.08;99961.94;1735861;82;21291;-82
2023/05/29 00:37:06;;;;;;;17.82;14.07;;;;;;;21.54;67.09;99959.09;1734867;82;21323;-82
2023/05/29 00:40:13;;;;;;;18.62;14.13;;;;;;;21.57;67.38;99966.95;1735902;82;21288;-82
2023/05/29 00:43:18;;;;;;;18.82;13.40;;;;;;;21.75;67.07;99968.03;1734340;81;21344;-81
2023/05/29 00:46:24;;;;;;;22.90;15.25;;;;;;;21.71;67.74;99971.59;1731678;83;21299;-82
2023/05/29 00:49:32;;;;;;;19.62;12.90;;;;;;;21.88;67.34;99966.26;1732868;83;21296;-81
2023/05/29 00:52:37;;;;;;;16.40;12.80;;;;;;;22.19;66.40;99969.43;1730207;83;21316;-82
2023/05/29 00:55:44;;;;;;;18.30;13.80;;;;;;;22.05;66.80;99973.13;1730669;83;21270;-82
2023/05/29 00:58:51;;;;;;;23.10;14.35;;;;;;;21.93;67.46;99975.23;1693137;85;21332;-81
2023/05/29 01:02:00;;;;;;;23.92;13.98;;;;;;;22.32;66.25;99965.41;1730304;83;21737;-82
2023/05/29 01:05:06;;;;;;;22.55;12.68;;;;;;;22.60;65.20;99962.34;1731131;83;23151;-81
2023/05/29 01:08:13;;;;;;;21.35;12.78;;;;;;;22.48;65.42;99963.05;1693497;85;21277;-81
2023/05/29 01:11:35;;;;;;;18.25;12.93;;;;;;;22.30;65.69;99967.59;1730706;83;21372;-82
2023/05/29 01:15:17;;;;;;;16.70;12.82;;;;;;;22.67;64.70;99965.75;1730757;83;21293;-81
2023/05/29 01:18:38;;;;;;;17.57;13.10;;;;;;;22.44;65.51;99968.34;1693800;85;21862;-81
2023/05/29 01:22:20;;;;;;;19.85;11.83;;;;;;;22.04;67.20;99965.05;1730519;83;21343;-81
2023/05/29 01:25:55;;;;;;;17.20;13.05;;;;;;;22.27;66.59;99956.44;1693901;85;21326;-82
2023/05/29 01:29:03;;;;;;;19.48;12.43;;;;;;;22.39;66.33;99955.71;1730833;83;21308;-82
2023/05/29 01:32:08;;;;;;;19.15;11.78;;;;;;;22.26;66.76;99952.53;1692495;85;21845;-82
2023/05/29 01:35:16;;;;;;;19.70;12.05;;;;;;;22.34;66.62;99947.86;1731184;83;21289;-81
2023/05/29 01:38:22;;;;;;;14.53;11.48;;;;;;;22.29;66.78;99947.81;1693800;85;21848;-82
2023/05/29 01:41:28;;;;;;;16.12;10.68;;;;;;;22.62;66.10;99955.95;1729828;83;21300;-82
2023/05/29 01:44:33;;;;;;;15.50;10.15;;;;;;;22.51;66.61;99956.96;1728093;83;21986;-82
2023/05/29 01:47:41;;;;;;;12.07;9.93;;;;;;;22.41;66.96;99947.95;1697986;84;21861;-81
2023/05/29 01:50:48;;;;;;;19.67;11.83;;;;;;;22.35;66.71;99941.20;1699150;84;21349;-81
2023/05/29 01:53:55;;;;;;;15.60;9.85;;;;;;;22.39;67.16;99942.34;1699406;84;21865;-82
2023/05/29 01:57:02;;;;;;;17.87;10.70;;;;;;;22.35;66.77;99951.80;1698555;84;21903;-82
2023/05/29 02:00:00;;;;;;;;;;;;;;;22.29;67.60;99941.68;1701366;84;21312;-81
2023/05/29 02:03:06;;;;;;;15.53;10.53;;;;;;;22.98;65.13;99947.94;1699587;84;20258;-81
2023/05/29 02:06:12;;;;;;;13.30;10.03;;;;;;;23.12;64.18;99956.13;1698290;84;21293;-81
2023/05/29 02:09:20;;;;;;;16.73;9.70;;;;;;;23.17;63.61;99964.54;1697729;83;21771;-82
2023/05/29 02:12:26;;;;;;;12.30;8.78;;;;;;;22.84;64.58;99960.61;1697759;84;21841;-80
2023/05/29 02:15:31;;;;;;;14.18;10.20;;;;;;;23.17;63.55;99967.33;1698391;84;21309;-80
2023/05/29 02:18:37;;;;;;;17.20;9.45;;;;;;;22.83;64.39;99970.93;1699220;84;21313;-82
2023/05/29 02:21:48;;;;;;;12.13;8.75;;;;;;;22.77;64.44;99966.39;1698586;84;21336;-81
2023/05/29 02:24:53;;;;;;;14.30;9.93;;;;;;;22.53;64.71;99978.98;1699424;84;21286;-82
2023/05/29 02:27:59;;;;;;;14.40;9.00;;;;;;;22.08;65.79;99978.19;1698131;84;21337;-81
2023/05/29 02:31:05;;;;;;;13.40;8.10;;;;;;;22.47;63.87;99986.45;1698290;84;21356;-81
2023/05/29 02:34:10;;;;;;;14.78;7.92;;;;;;;22.75;63.30;99987.30;1699294;84;21304;-81
2023/05/29 02:37:15;;;;;;;12.18;8.38;;;;;;;22.80;62.85;99988.18;1698792;84;21352;-81
2023/05/29 02:40:22;;;;;;;11.30;7.50;;;;;;;23.06;61.70;99996.81;1699298;84;21286;-81
2023/05/29 02:43:28;;;;;;;14.13;7.33;;;;;;;22.87;61.78;100008.89;1699208;84;21290;-81
2023/05/29 02:46:33;;;;;;;15.58;8.03;;;;;;;22.59;61.87;100004.44;1688902;84;21313;-81
2023/05/29 02:49:39;;;;;;;13.35;7.25;;;;;;;22.77;60.61;99999.84;1703532;84;21818;-81
2023/05/29 02:52:44;;;;;;;8.68;6.47;;;;;;;23.10;59.41;100000.73;1702199;84;21305;-81
2023/05/29 02:55:52;;;;;;;10.15;6.58;;;;;;;23.43;56.93;99995.40;1703445;84;21317;-81
2023/05/29 02:58:58;;;;;;;11.12;6.15;;;;;;;23.25;56.61;99998.64;1703505;84;21285;-82
2023/05/29 03:02:03;;;;;;;10.40;5.75;;;;;;;23.17;56.56;99999.97;1702698;84;21865;-81
2023/05/29 03:05:09;;;;;;;14.28;6.33;;;;;;;22.46;57.74;100004.29;1703563;84;21825;-82
2023/05/29 03:08:17;;;;;;;8.68;6.12;;;;;;;22.83;56.36;100007.73;1702627;84;21901;-81
2023/05/29 03:11:24;;;;;;;14.10;6.35;;;;;;;22.57;56.61;100001.89;1702227;84;21325;-81
2023/05/29 03:14:35;;;;;;;13.48;5.40;;;;;;;22.38;57.19;100001.41;1703632;84;21308;-81
2023/05/29 03:17:38;;;;;;;12.95;5.85;;;;;;;22.81;55.38;100010.77;1702321;84;21322;-81
2023/05/29 03:20:45;;;;;;;12.07;5.60;;;;;;;22.69;55.57;100003.97;1703487;84;21320;-82
2023/05/29 03:23:45;;;;;;;17.17;5.75;;;;;;;22.62;55.46;100007.52;1703565;84;21317;-82
2023/05/29 03:26:38;;;;;;;13.98;5.42;;;;;;;22.54;55.69;100006.61;1702893;84;21333;-81
2023/05/29 03:29:24;;;;;;;22.45;5.65;;;;;;;22.64;55.06;100008.11;1703556;84;21289;-82
2023/05/29 03:32:17;;;;;;;9.83;5.42;;;;;;;22.67;54.72;100008.11;1702395;84;21842;-81
2023/05/29 03:35:23;;;;;;;11.23;5.50;;;;;;;22.25;55.46;100003.75;1703755;84;21305;-81
2023/05/29 03:38:28;;;;;;;15.13;5.37;;;;;;;22.65;54.31;100007.55;1703597;84;21306;-81
2023/05/29 03:41:33;;;;;;;20.15;5.45;;;;;;;22.95;53.32;100012.60;1702850;84;21344;-81
2023/05/29 03:44:38;;;;;;;9.45;4.67;;;;;;;22.83;53.85;100011.92;1704083;84;21313;-81
2023/05/29 03:47:45;;;;;;;11.33;5.30;;;;;;;23.14;52.98;100008.86;1716937;83;21857;-81
2023/05/29 03:50:54;;;;;;;12.05;4.55;;;;;;;23.24;52.22;100000.56;1729580;83;21313;-81
2023/05/29 03:53:59;;;;;;;13.10;5.45;;;;;;;23.03;52.89;100005.70;1731000;83;21285;-82
2023/05/29 03:57:08;;;;;;;16.85;4.60;;;;;;;23.39;51.76;100003.49;1692747;85;21324;-81
2023/05/29 04:00:18;;;;;;;11.45;5.00;;;;;;;23.45;51.48;100012.17;1729850;83;21333;-81
2023/05/29 04:03:23;;;;;;;10.08;4.97;;;;;;;23.51;51.22;100001.88;1731544;83;21814;-82
2023/05/29 04:06:29;;;;;;;7.92;4.90;;;;;;;23.52;51.39;100018.91;1731160;83;21336;-81
2023/05/29 04:09:35;;;;;;;11.33;5.25;;;;;;;23.49;51.43;100008.86;1692596;85;21344;-82
2023/05/29 04:12:42;;;;;;;9.38;4.33;;;;;;;23.29;51.97;100009.53;1729766;83;21862;-81
2023/05/29 04:15:48;;;;;;;7.17;4.47;;;;;;;23.89;50.78;100027.27;1730887;83;21328;-82
2023/05/29 04:18:54;;;;;;;5.78;3.92;;;;;;;23.89;49.78;100016.09;1730546;83;21312;-81
2023/05/29 04:22:01;;;;;;;11.40;5.37;;;;;;;24.03;49.85;100020.63;1693717;84;21373;-81
2023/05/29 04:25:06;;;;;;;10.23;4.67;;;;;;;24.23;49.22;100026.33;1732668;83;21288;-81
2023/05/29 04:28:12;;;;;;;7.55;4.45;;;;;;;24.23;49.11;100029.69;1732732;83;21312;-81
2023/05/29 04:31:19;;;;;;;10.65;4.37;;;;;;;24.05;48.85;100029.59;1694631;84;21870;-81
2023/05/29 04:34:24;;;;;;;8.55;4.22;;;;;;;24.43;47.73;100039.56;1695224;84;21308;-81
2023/05/29 04:37:37;;;;;;;14.58;3.87;;;;;;;24.15;48.40;100031.04;1694009;84;21309;-82
2023/05/29 04:40:40;;;;;;;19.27;4.62;;;;;;;24.69;47.08;100026.48;1695253;84;21944;-82
2023/05/29 04:43:45;;;;;;;11.78;4.42;;;;;;;24.55;47.18;100028.69;1695287;84;21297;-82
2023/05/29 04:46:53;;;;;;;9.95;3.87;;;;;;;24.66;46.76;100022.86;1694255;84;21281;-82
2023/05/29 04:50:00;;;;;;;13.95;5.08;;;;;;;24.84;46.28;100020.09;1684652;84;21308;-82
2023/05/29 04:53:06;;;;;;;10.32;4.00;;;;;;;24.92;46.14;100017.29;1688027;84;21288;-81
2023/05/29 04:56:12;;;;;;;11.18;4.62;;;;;;;25.23;45.32;100023.78;1674097;84;21331;-81
2023/05/29 04:59:18;;;;;;;7.53;4.28;;;;;;;25.33;44.97;100029.94;1729982;81;21305;-81
2023/05/29 05:02:23;;;;;;;16.32;4.25;;;;;;;25.34;44.75;100036.64;1672502;85;21308;-82
2023/05/29 05:05:28;;;;;;;9.40;4.42;;;;;;;25.24;45.41;100024.89;1662494;84;21840;-82
2023/05/29 05:08:35;;;;;;;9.08;4.25;;;;;;;25.24;45.55;100027.69;1722760;81;21288;-82
2023/05/29 05:11:40;;;;;;;11.33;3.62;;;;;;;25.76;44.62;100017.86;1729839;81;21303;-82
2023/05/29 05:14:46;;;;;;;11.83;3.92;;;;;;;25.91;43.99;100022.84;1722518;81;21825;-82
2023/05/29 05:17:52;;;;;;;7.53;3.42;;;;;;;26.00;43.54;100028.70;1694438;83;21325;-82
2023/05/29 05:20:58;;;;;;;20.60;4.35;;;;;;;25.97;42.97;100025.94;1694219;84;21321;-81
2023/05/29 05:24:04;;;;;;;11.22;4.03;;;;;;;25.31;44.85;100022.36;1726652;81;22026;-81
2023/05/29 05:27:11;;;;;;;10.30;3.85;;;;;;;25.34;44.55;100037.20;1729172;81;21323;-82
2023/05/29 05:30:17;;;;;;;13.75;4.22;;;;;;;25.64;43.89;100032.12;1683726;83;22301;-82
2023/05/29 05:33:23;;;;;;;7.30;4.10;;;;;;;25.93;43.19;100015.02;1736232;81;21336;-82
2023/05/29 05:36:31;;;;;;;6.03;3.50;;;;;;;25.63;43.51;100020.64;1720436;81;21213;-81
2023/05/29 05:39:31;;;;;;;8.65;3.72;;;;;;;26.05;43.84;100013.84;1674263;83;21303;-81
2023/05/29 05:42:23;;;;;;;7.20;3.42;;;;;;;26.31;43.75;100018.23;1671421;84;21355;-80
2023/05/29 05:45:31;;;;;;;9.05;3.77;;;;;;;26.13;43.54;100020.27;1682258;83;21845;-82
2023/05/29 05:48:37;;;;;;;13.35;3.70;;;;;;;26.28;43.09;100037.02;1664125;84;21328;-82
2023/05/29 05:51:43;;;;;;;10.05;3.62;;;;;;;25.95;43.70;100027.33;1661905;85;21886;-82
2023/05/29 05:54:53;;;;;;;10.95;3.72;;;;;;;26.07;44.02;100022.82;1686977;83;21797;-82
2023/05/29 05:57:57;;;;;;;9.13;3.77;;;;;;;25.81;44.33;100016.45;1665894;84;21856;-82
2023/05/29 06:01:03;;;;;;;8.18;3.55;;;;;;;25.76;44.89;100019.27;1718822;81;21327;-82
2023/05/29 06:04:09;;;;;;;11.65;3.55;;;;;;;25.95;44.73;100023.13;1669815;83;21364;-82
2023/05/29 06:07:14;;;;;;;6.90;3.83;;;;;;;26.32;44.42;100020.47;1672548;84;21328;-81
2023/05/29 06:10:21;;;;;;;8.83;3.85;;;;;;;26.92;43.59;100029.11;1673493;84;21315;-82
2023/05/29 06:13:27;;;;;;;10.18;4.28;;;;;;;26.90;43.79;100027.15;1682867;84;21889;-81
2023/05/29 06:16:35;;;;;;;5.20;3.20;;;;;;;27.07;42.87;100026.75;1678850;83;21960;-81
2023/05/29 06:19:41;;;;;;;7.20;3.40;;;;;;;27.47;42.13;100022.77;1715428;81;21356;-82
2023/05/29 06:22:50;;;;;;;9.28;3.67;;;;;;;27.68;42.17;100025.40;1715890;81;21613;-81
2023/05/29 06:25:57;;;;;;;;;;;;;;;27.22;42.76;100032.27;1678470;84;21348;-81
2023/05/29 06:29:03;;;;;;;7.72;3.47;;;;;;;27.23;42.41;100033.11;1680060;83;20285;-82
2023/05/29 06:32:08;;;;;;;8.60;3.83;;;;;;;27.54;41.54;100036.48;1681342;83;21329;-82
2023/05/29 06:35:15;;;;;;;14.30;3.60;;;;;;;27.56;41.95;100038.42;1673453;84;21312;-81
2023/05/29 06:38:22;;;;;;;9.88;3.87;;;;;;;28.11;41.24;100026.91;1687803;84;21320;-82
2023/05/29 06:41:28;;;;;;;9.85;3.67;;;;;;;28.32;41.24;100019.05;1668203;84;21344;-82
2023/05/29 06:44:37;;;;;;;9.80;3.87;;;;;;;27.90;41.63;100035.59;1670102;84;21300;-82
2023/05/29 06:47:43;;;;;;;9.78;3.70;;;;;;;27.63;42.62;100022.08;1715863;81;21353;-82
2023/05/29 06:50:49;;;;;;;6.20;3.92;;;;;;;27.88;42.54;100031.39;1722589;81;21311;-81
2023/05/29 06:54:12;;;;;;;11.90;4.33;;;;;;;28.36;41.64;100031.41;1718939;81;21287;-81
2023/05/29 06:57:18;;;;;;;10.38;4.45;;;;;;;28.62;41.55;100017.27;1718047;83;21264;-81
2023/05/29 07:00:24;;;;;;;9.80;4.03;;;;;;;28.44;41.80;100019.49;1675513;84;21289;-81
2023/05/29 07:03:49;;;;;;;10.10;4.12;;;;;;;28.67;41.53;100023.39;1677626;83;21407;-81
2023/05/29 07:06:54;;;;;;;10.68;4.00;;;;;;;28.83;40.50;100047.91;1677999;84;21300;-81
2023/05/29 07:09:54;;;;;;;12.03;3.72;;;;;;;28.39;41.36;100044.88;1677422;84;21347;-82
2023/05/29 07:13:01;;;;;;;7.78;4.53;;;;;;;28.30;41.81;100038.21;1674624;84;22285;-80
2023/05/29 07:16:08;;;;;;;6.30;3.90;;;;;;;28.69;41.38;100027.56;1675816;84;21371;-81
2023/05/29 07:19:17;;;;;;;8.88;3.85;;;;;;;28.61;41.42;100040.92;1675150;84;21588;-81
2023/05/29 07:22:22;;;;;;;9.80;4.62;;;;;;;28.50;41.93;100036.56;1665535;84;21371;-81
2023/05/29 07:25:26;;;;;;;13.38;4.47;;;;;;;28.65;41.90;100043.38;1718719;81;21264;-82
2023/05/29 07:28:33;;;;;;;9.65;3.77;;;;;;;28.88;41.58;100038.82;1717958;81;21841;-81
2023/05/29 07:31:34;;;;;;;6.37;3.77;;;;;;;28.83;40.88;100034.67;1681482;84;21354;-81
2023/05/29 07:34:27;;;;;;;11.22;3.72;;;;;;;28.82;40.47;100027.95;1724133;81;21220;-81
2023/05/29 07:37:33;;;;;;;5.22;3.70;;;;;;;28.69;41.42;100033.19;1725835;81;21852;-81
2023/05/29 07:40:38;;;;;;;7.03;3.70;;;;;;;28.65;41.10;100034.09;1724789;81;21272;-81
2023/05/29 07:43:52;;;;;;;9.28;3.72;;;;;;;28.61;40.66;100038.11;1679938;84;21309;-81
2023/05/29 07:46:58;;;;;;;4.75;3.58;;;;;;;28.85;40.76;100041.42;1716559;81;21303;-81
2023/05/29 07:50:05;;;;;;;11.80;4.22;;;;;;;28.92;39.92;100039.05;1683118;84;21901;-81
2023/05/29 07:53:11;;;;;;;11.80;4.28;;;;;;;29.11;39.09;100037.09;1666224;85;21308;-82
2023/05/29 07:56:17;;;;;;;7.83;3.80;;;;;;;29.07;39.33;100036.02;1726368;81;21390;-81
2023/05/29 07:59:22;;;;;;;9.35;3.70;;;;;;;29.12;39.00;100038.75;1691340;83;21933;-81
2023/05/29 08:02:27;;;;;;;6.83;3.37;;;;;;;29.10;39.22;100036.00;1731788;81;21344;-82
2023/05/29 08:05:45;;;;;;;9.23;4.15;;;;;;;29.22;39.22;100043.41;1726656;81;21769;-82
2023/05/29 08:08:53;;;;;;;7.22;3.70;;;;;;;28.62;40.50;100035.56;1673211;84;21287;-81
2023/05/29 08:12:00;;;;;;;9.85;3.98;;;;;;;29.17;39.80;100030.80;1681654;84;21312;-81
2023/05/29 08:15:07;;;;;;;6.83;3.80;;;;;;;28.95;39.47;100028.63;1675500;84;22034;-82
2023/05/29 08:18:14;;;;;;;9.58;3.80;;;;;;;29.20;38.88;100023.16;1682101;83;21894;-81
2023/05/29 08:21:20;;;;;;;8.38;3.62;;;;;;;28.98;39.02;100030.28;1679831;83;21368;-82
2023/05/29 08:24:27;;;;;;;5.95;3.60;;;;;;;28.83;39.26;100026.80;1687427;84;21284;-82
2023/05/29 08:27:32;;;;;;;4.60;3.35;;;;;;;28.91;39.69;100028.37;1679157;84;21909;-82
2023/05/29 08:30:38;;;;;;;8.50;3.40;;;;;;;29.07;39.95;100016.31;1676195;83;21280;-82
2023/05/29 08:33:37;;;;;;;9.08;3.27;;;;;;;29.28;40.17;100013.44;1680696;83;22245;-81
2023/05/29 08:36:45;;;;;;;12.93;3.98;;;;;;;29.34;38.98;100016.99;1728270;81;21289;-81
2023/05/29 08:39:50;;;;;;;13.48;4.08;;;;;;;29.09;39.88;100011.23;1680399;84;21292;-82
2023/05/29 08:43:04;;;;;;;5.62;3.20;;;;;;;29.12;39.62;100021.86;1689514;84;21285;-82
2023/05/29 08:46:10;;;;;;;11.33;3.87;;;;;;;29.36;39.08;100023.72;1683947;83;22031;-81
2023/05/29 08:49:16;;;;;;;7.70;3.80;;;;;;;29.40;38.44;100022.80;1677023;84;21296;-82
2023/05/29 08:52:30;;;;;;;6.05;3.70;;;;;;;29.62;38.27;100027.80;1682489;84;21750;-81
2023/05/29 08:55:35;;;;;;;8.53;3.70;;;;;;;29.47;38.90;100022.41;1730576;81;21908;-82
2023/05/29 08:58:40;;;;;;;8.78;4.15;;;;;;;29.57;38.72;100009.58;1682262;83;21269;-83
2023/05/29 09:01:47;;;;;;;8.03;3.22;;;;;;;29.61;38.92;100003.59;1682422;83;21289;-82
2023/05/29 09:04:54;;;;;;;9.03;3.30;;;;;;;29.59;39.07;100004.45;1722779;81;21300;-81
2023/05/29 09:08:04;;;;;;;6.20;3.25;;;;;;;29.54;39.26;100003.11;1678511;84;21928;-82
2023/05/29 09:11:09;;;;;;;5.33;2.98;;;;;;;29.31;38.67;99997.88;1682292;84;21746;-81
2023/05/29 09:14:16;;;;;;;6.20;3.62;;;;;;;29.60;38.07;99989.82;1737128;81;21319;-82
2023/05/29 09:17:22;;;;;;;14.53;3.30;;;;;;;29.56;38.70;99978.33;1728625;81;21334;-82
2023/05/29 09:20:30;;;;;;;3.80;2.75;;;;;;;29.34;39.12;99986.59;1726785;81;21288;-80
2023/05/29 09:23:36;;;;;;;5.17;2.98;;;;;;;29.75;38.73;99976.83;1721174;81;21304;-83
2023/05/29 09:26:42;;;;;;;7.78;3.42;;;;;;;29.75;38.44;99990.92;1682399;83;21313;-82
2023/05/29 09:29:49;;;;;;;15.65;4.00;;;;;;;30.11;38.56;99974.09;1675599;84;21328;-82
2023/05/29 09:32:49;;;;;;;12.18;4.03;;;;;;;30.03;38.44;99974.28;1679202;84;21336;-83
2023/05/29 09:35:56;;;;;;;6.15;3.00;;;;;;;30.03;38.47;99972.87;1680234;84;21305;-82
2023/05/29 09:39:01;;;;;;;7.85;3.20;;;;;;;29.96;38.54;99958.92;1678365;83;21838;-83
2023/05/29 09:42:08;;;;;;;8.48;3.42;;;;;;;30.20;38.39;99957.30;1674432;84;21960;-81
2023/05/29 09:45:14;;;;;;;4.05;2.65;;;;;;;30.43;38.38;99966.67;1672006;84;21312;-82
2023/05/29 09:48:28;;;;;;;10.08;3.15;;;;;;;30.40;38.61;99952.64;1681452;84;21956;-81
2023/05/29 09:51:34;;;;;;;9.45;3.20;;;;;;;30.42;38.87;99962.19;1676059;84;21320;-82
2023/05/29 09:54:39;;;;;;;6.35;2.90;;;;;;;30.46;38.02;99967.45;1663026;84;21688;-82
2023/05/29 09:57:46;;;;;;;7.15;2.70;;;;;;;30.52;38.00;99953.48;1651581;85;21298;-82
2023/05/29 10:00:53;;;;;;;5.75;2.83;;;;;;;30.33;38.19;99964.09;1664422;85;21934;-81
2023/05/29 10:03:59;;;;;;;5.62;3.00;;;;;;;30.36;37.96;99990.27;1667487;85;21302;-82
2023/05/29 10:07:04;;;;;;;7.33;2.92;;;;;;;30.14;38.12;99963.64;1683288;85;21385;-82
2023/05/29 10:10:14;;;;;;;8.68;2.75;;;;;;;30.67;37.98;99971.45;1663708;83;21314;-82
2023/05/29 10:13:21;;;;;;;6.80;2.70;;;;;;;30.72;37.95;99973.36;1665398;85;21287;-82
2023/05/29 10:16:19;;;;;;;10.30;2.87;;;;;;;30.77;38.01;99947.28;1669020;83;21903;-82
2023/05/29 10:19:32;;;;;;;6.33;2.72;;;;;;;30.64;37.35;99959.99;1678848;85;21308;-82
2023/05/29 10:22:39;;;;;;;9.18;2.90;;;;;;;30.58;37.18;99955.02;1665682;84;21898;-82
2023/05/29 10:25:44;;;;;;;5.70;2.77;;;;;;;30.51;37.71;99934.89;1700636;82;21414;-82
2023/05/29 10:28:55;;;;;;;8.50;2.75;;;;;;;30.84;37.51;99962.34;1664523;85;21318;-83
2023/05/29 10:32:06;;;;;;;12.07;2.98;;;;;;;31.08;37.88;99962.03;1677764;83;21321;-82
2023/05/29 10:35:20;;;;;;;6.50;2.90;;;;;;;31.22;36.82;99967.61;1668069;84;21304;-81
2023/05/29 10:38:27;;;;;;;5.20;3.12;;;;;;;30.91;37.27;99964.16;1701411;82;21312;-82
2023/05/29 10:41:40;;;;;;;5.60;2.72;;;;;;;30.75;37.68;99961.44;1670293;85;21908;-82
2023/05/29 10:44:47;;;;;;;6.62;2.70;;;;;;;30.58;38.10;99952.78;1672435;85;21876;-82
2023/05/29 10:47:54;;;;;;;8.30;3.05;;;;;;;30.39;38.40;99947.29;1680929;85;21323;-83
2023/05/29 10:51:00;;;;;;;8.93;2.77;;;;;;;30.76;38.62;99956.88;1669502;85;21954;-82
2023/05/29 10:54:05;;;;;;;3.25;2.77;;;;;;;31.11;37.96;99949.27;1667167;83;21327;-82
2023/05/29 10:57:12;;;;;;;3.42;2.62;;;;;;;31.29;37.86;99945.43;1682280;83;22201;-82
2023/05/29 11:00:20;;;;;;;4.20;2.67;;;;;;;30.86;38.43;99930.95;1676199;84;21299;-82
2023/05/29 11:03:31;;;;;;;3.42;2.35;;;;;;;30.71;38.62;99937.24;1680728;84;21288;-82
2023/05/29 11:06:37;;;;;;;7.72;3.37;;;;;;;31.14;37.82;99916.12;1677629;83;21873;-82
2023/05/29 11:09:49;;;;;;;4.08;2.22;;;;;;;30.43;38.93;99911.66;1658009;84;21850;-82
2023/05/29 11:13:07;;;;;;;4.28;2.37;;;;;;;30.34;38.79;99905.09;1690138;82;21298;-82
2023/05/29 11:16:36;;;;;;;5.80;3.00;;;;;;;30.62;38.72;99889.73;1708430;84;21399;-82
2023/05/29 11:19:43;;;;;;;5.53;2.62;;;;;;;30.46;38.54;99896.34;1708132;84;21300;-82
2023/05/29 11:23:12;;;;;;;4.30;2.98;;;;;;;30.21;39.21;99892.72;1682288;84;21221;-82
2023/05/29 11:26:18;;;;;;;8.15;3.02;;;;;;;29.65;41.04;99890.52;1711078;84;21374;-82
2023/05/29 11:29:23;;;;;;;9.15;3.12;;;;;;;29.67;40.58;99893.00;1685128;84;21280;-81
2023/05/29 11:32:29;;;;;;;5.90;2.60;;;;;;;29.92;40.46;99884.57;1696882;84;21895;-81
2023/05/29 11:35:35;;;;;;;5.70;2.83;;;;;;;30.12;40.08;99874.27;1706393;84;21340;-83
2023/05/29 11:38:35;;;;;;;6.15;3.17;;;;;;;30.22;39.69;99881.69;1699981;82;21335;-82
2023/05/29 11:41:42;;;;;;;5.83;2.77;;;;;;;30.16;39.68;99872.52;1710626;84;21900;-82
2023/05/29 11:44:48;;;;;;;3.52;2.55;;;;;;;30.02;40.09;99871.69;1695957;84;21295;-81
2023/05/29 11:48:07;;;;;;;3.55;2.20;;;;;;;30.31;39.90;99876.13;1692804;82;21339;-82
2023/05/29 11:51:13;;;;;;;6.10;2.40;;;;;;;29.91;41.02;99889.95;1681623;83;21351;-82
2023/05/29 11:54:20;;;;;;;7.78;3.00;;;;;;;29.96;40.16;99870.11;1705436;82;21305;-82
2023/05/29 11:57:20;;;;;;;5.62;2.87;;;;;;;29.99;40.61;99875.12;1653979;85;21284;-82
2023/05/29 12:00:26;;;;;;;6.33;2.50;;;;;;;30.09;39.88;99865.02;1651354;86;21308;-82
2023/05/29 12:03:32;;;;;;;7.05;2.50;;;;;;;30.05;39.63;99878.08;1719454;81;21291;-81
2023/05/29 12:06:42;;;;;;;4.08;2.62;;;;;;;30.46;40.03;99868.12;1681104;84;21332;-82
2023/05/29 12:09:52;;;;;;;9.58;3.00;;;;;;;30.31;40.94;99883.19;1712741;81;21344;-81
2023/05/29 12:12:52;;;;;;;3.80;2.15;;;;;;;30.25;39.42;99875.39;1666982;86;21289;-82
2023/05/29 12:16:08;;;;;;;7.92;2.52;;;;;;;30.36;38.99;99873.19;1672948;84;21312;-81
2023/05/29 12:19:14;;;;;;;5.40;2.40;;;;;;;30.37;39.26;99857.92;1677414;84;21343;-82
2023/05/29 12:22:21;;;;;;;6.17;2.50;;;;;;;30.49;39.35;99862.44;1678947;84;21392;-83
2023/05/29 12:25:29;;;;;;;33.20;3.02;;;;;;;30.49;39.21;99854.80;1735771;81;21340;-81
2023/05/29 12:28:35;;;;;;;3.92;2.37;;;;;;;30.29;39.87;99854.70;1685402;83;21312;-82
2023/05/29 12:31:41;;;;;;;6.85;2.60;;;;;;;30.23;40.08;99851.75;1716523;83;21890;-81
2023/05/29 12:34:46;;;;;;;4.92;2.47;;;;;;;30.38;39.38;99845.48;1720439;83;21297;-81
2023/05/29 12:38:11;;;;;;;7.33;2.95;;;;;;;30.48;39.79;99840.99;1678553;84;21336;-81
2023/05/29 12:41:17;;;;;;;3.72;2.52;;;;;;;30.27;40.20;99842.91;1722572;81;21351;-81
2023/05/29 12:44:22;;;;;;;8.38;2.67;;;;;;;30.05;39.86;99852.12;1683038;84;21751;-81
2023/05/29 12:47:22;;;;;;;7.28;2.50;;;;;;;30.05;39.88;99852.70;1673597;84;21343;-82
2023/05/29 12:50:35;;;;;;;6.72;2.75;;;;;;;29.79;40.03;99849.64;1665231;84;21297;-80
2023/05/29 12:53:41;;;;;;;4.95;2.62;;;;;;;29.84;40.38;99852.92;1671172;84;21872;-81
2023/05/29 12:56:46;;;;;;;10.28;3.12;;;;;;;29.83;40.95;99841.36;1668815;84;21889;-81
2023/05/29 12:59:54;;;;;;;10.85;3.40;;;;;;;29.68;40.73;99853.80;1717639;81;21280;-81
2023/05/29 13:03:01;;;;;;;3.80;2.37;;;;;;;29.61;41.30;99847.20;1721418;81;21308;-82
2023/05/29 13:06:01;;;;;;;8.85;2.98;;;;;;;29.57;40.86;99837.70;1687251;84;21359;-82
2023/05/29 13:09:08;;;;;;;15.40;2.90;;;;;;;29.57;41.57;99848.97;1665334;84;21333;-82
2023/05/29 13:12:13;;;;;;;6.87;3.05;;;;;;;29.53;41.43;99834.63;1724424;81;21370;-82
2023/05/29 13:15:19;;;;;;;9.58;2.90;;;;;;;29.67;41.09;99820.56;1677377;83;21284;-81
2023/05/29 13:18:26;;;;;;;8.40;3.12;;;;;;;29.95;41.36;99821.34;1682373;84;21273;-81
2023/05/29 13:21:32;;;;;;;4.80;2.83;;;;;;;29.83;41.35;99825.31;1656942;84;21387;-82
2023/05/29 13:24:38;;;;;;;8.30;3.12;;;;;;;30.09;40.56;99834.58;1663626;84;22028;-81
2023/05/29 13:27:50;;;;;;;8.10;3.00;;;;;;;29.94;40.43;99816.04;1713675;81;21945;-81
2023/05/29 13:30:56;;;;;;;3.50;2.85;;;;;;;30.12;39.78;99838.19;1681074;84;21363;-81
2023/05/29 13:34:02;;;;;;;2.75;2.17;;;;;;;29.78;39.60;99824.84;1688243;84;21933;-82
2023/05/29 13:37:08;;;;;;;5.67;2.60;;;;;;;29.69;40.29;99828.15;1679869;84;21308;-82
2023/05/29 13:40:14;;;;;;;4.22;3.02;;;;;;;29.72;40.46;99821.86;1702985;83;21319;-82
2023/05/29 13:43:21;;;;;;;11.38;2.58;;;;;;;29.47;40.93;99828.86;1702153;84;22218;-82
2023/05/29 13:46:29;;;;;;;8.05;2.70;;;;;;;29.27;41.20;99825.89;1679942;84;21229;-81
2023/05/29 13:49:35;;;;;;;8.23;3.08;;;;;;;29.53;40.46;99841.67;1691415;84;21308;-82
2023/05/29 13:52:40;;;;;;;8.93;2.95;;;;;;;29.26;40.87;99830.41;1675816;84;21284;-82
2023/05/29 13:55:46;;;;;;;8.35;3.10;;;;;;;29.07;41.08;99813.60;1673407;84;21317;-81
2023/05/29 13:58:51;;;;;;;5.40;2.80;;;;;;;28.91;41.51;99836.13;1677110;84;21337;-81
2023/05/29 14:01:57;;;;;;;7.40;2.67;;;;;;;28.98;41.74;99837.98;1673634;84;21923;-82
2023/05/29 14:05:05;;;;;;;9.13;2.67;;;;;;;28.84;42.05;99847.77;1656550;84;21281;-82
2023/05/29 14:08:11;;;;;;;5.80;3.22;;;;;;;28.82;42.14;99853.47;1680677;84;21309;-81
2023/05/29 14:11:17;;;;;;;5.53;2.80;;;;;;;28.38;42.72;99842.12;1682947;84;21414;-82
2023/05/29 14:14:23;;;;;;;4.87;3.08;;;;;;;28.44;42.75;99856.35;1682975;84;21320;-82
2023/05/29 14:17:30;;;;;;;5.30;3.25;;;;;;;28.45;42.72;99843.38;1673296;84;21363;-81
2023/05/29 14:20:36;;;;;;;10.45;3.22;;;;;;;28.55;42.39;99859.25;1678725;84;21308;-82
2023/05/29 14:23:42;;;;;;;6.10;3.22;;;;;;;28.62;42.35;99852.68;1687258;84;21356;-82
2023/05/29 14:26:48;;;;;;;6.83;3.10;;;;;;;28.54;42.59;99842.12;1692566;84;21328;-81
2023/05/29 14:29:55;;;;;;;15.28;3.60;;;;;;;28.48;42.94;99842.78;1693604;84;21955;-82
2023/05/29 14:33:01;;;;;;;10.75;3.33;;;;;;;28.17;43.48;99848.58;1693016;84;21865;-82